Ora Direzione Vento Velocita' Vento Media Vento Raffica Max. Temperatura Wind Chill Pioggia Pressione
02:40:36.00 °(N)0.0 Kts0.0 Kts3.1 Kts8.8 °C18.58 °C0.0 mm0.0 Hpa
02:20:25.00 °(N)0.0 Kts0.0 Kts3.1 Kts8.6 °C18.46 °C0.0 mm0.0 Hpa
02:00:11.00 °(N)0.0 Kts0.0 Kts3.1 Kts8.6 °C18.46 °C0.0 mm0.0 Hpa
01:40:04.00 °(N)0.0 Kts0.0 Kts3.1 Kts8.5 °C18.4 °C0.0 mm0.0 Hpa
01:19:53.00 °(N)0.0 Kts0.0 Kts3.1 Kts8.6 °C18.46 °C0.0 mm0.0 Hpa
00:58:29.00 °(N)0.0 Kts0.0 Kts3.1 Kts8.6 °C18.46 °C0.0 mm0.0 Hpa
00:39:29.00 °(N)0.0 Kts0.0 Kts3.1 Kts8.8 °C18.58 °C0.0 mm1072.0 Hpa
00:20:27.00 °(N)0.0 Kts0.0 Kts3.1 Kts8.8 °C18.58 °C0.0 mm1046.8 Hpa
00:00:18.00 °(N)1.2 Kts1.16 Kts1.2 Kts9.0 °C9.98 °C0.0 mm0.0 Hpa
23:40:12.00 °(N)2.7 Kts1.23 Kts9.6 Kts9.1 °C8.84 °C0.0 mm0.0 Hpa
23:20:03.00 °(N)1.9 Kts1.4 Kts9.6 Kts9.3 °C9.52 °C0.0 mm922.1 Hpa
22:59:55.00 °(N)0.0 Kts0.0 Kts9.6 Kts9.3 °C18.89 °C0.0 mm1054.0 Hpa
22:39:55.00 °(N)1.4 Kts1.93 Kts9.6 Kts9.6 °C10.32 °C0.0 mm0.0 Hpa
22:19:48.00 °(N)1.0 Kts1.7 Kts9.6 Kts9.6 °C10.84 °C0.0 mm0.0 Hpa
21:59:38.00 °(N)1.5 Kts1.46 Kts9.6 Kts9.6 °C10.23 °C0.0 mm0.0 Hpa
21:39:29.00 °(N)0.9 Kts1.66 Kts9.6 Kts10.0 °C11.34 °C0.0 mm0.0 Hpa
21:20:30.00 °(N)0.0 Kts1.43 Kts9.6 Kts10.5 °C19.64 °C0.0 mm0.0 Hpa
21:00:20.00 °(N)0.9 Kts0.63 Kts9.6 Kts10.5 °C11.87 °C0.0 mm1024.6 Hpa
20:40:14.00 °(N)1.5 Kts1.06 Kts9.6 Kts10.6 °C11.32 °C0.0 mm0.0 Hpa
20:20:10.00 °(N)0.0 Kts0.0 Kts9.6 Kts11.1 °C20.01 °C0.0 mm0.0 Hpa